Skip Navigation Linkwww.weather.gov 
NOAA logo - Select to go to the NOAA homepage National Weather Service
 Headquarters Office   NWS logo
NWS Office of the Chief Information Officer/Telecommunication Operations Center
 
   

Current Weather Conditions:
Chinandega, Nicaragua

(MNCH) 12-38N 087-08W 60M

Conditions at

2014.07.27 2300 UTC
Wind from the N (350 degrees) at 5 MPH (4 KT)
Visibility greater than 7 mile(s)
Sky conditions mostly cloudy
Weather Cumulonimbus clouds observed
Temperature 82 F (28 C)
Dew Point 78 F (26 C)
Relative Humidity 88%
Pressure (altimeter) 29.83 in. Hg (1010 hPa)
ob MNCH 272300Z 35004KT 5000 FEW024CB BKN025 28/26 Q1010 CB/RA/SW/W/NW MNBL 272300Z 08004KT 9999 BKN017 30/25 Q1011

24 Hour Summary

Time
EDT (UTC)
Temperature
F (C)
Dew Point
F (C)
Pressure
Inches (hPa)
Wind
MPH
Weather
Latest 7 PM (23) Jul 27 82 (28) 78 (26) 29.83 (1010) N 5
6 PM (22) Jul 27 93 (34) 71 (22) 29.80 (1009) SW 5
5 PM (21) Jul 27 93 (34) 73 (23) 29.83 (1010) SW 5
4 PM (20) Jul 27 93 (34) 68 (20) 29.83 (1010) N 5
3 PM (19) Jul 27 95 (35) 68 (20) 29.85 (1011) SW 5
2 PM (18) Jul 27 95 (35) 64 (18) 29.88 (1012) Calm
1 PM (17) No Data
Noon (16) Jul 27 91 (33) 66 (19) 29.88 (1012) S 5
11 AM (15) Jul 27 89 (32) 68 (20) 29.91 (1013) N 5
10 AM (14) Jul 27 84 (29) 71 (22) 29.88 (1012) W 5
9 AM (13) Jul 27 78 (26) 73 (23) 29.88 (1012)
8 AM (12) Jul 27 71 (22) 71 (22) 29.88 (1012) Calm
7 AM (11) No Data
6 AM (10) No Data
5 AM (9) No Data
4 AM (8) No Data
3 AM (7) No Data
2 AM (6) No Data
1 AM (5) No Data
Midnight (4) No Data
11 PM (3) No Data
10 PM (2) No Data
9 PM (1) No Data
Oldest 8 PM (0) No Data
Time
EDT (UTC)
Temperature
F(C)
Dew Point
F(C)
Pressure
Inches(hPa)
Wind
(MPH)
Weather

The information presented here is taken from products produced by the U.S. National Weather Service and other national and international agencies




US Dept of Commerce
National Oceanic and Atmospheric Administration
National Weather Service
1325 East West Highway
Silver Spring, MD 20910
Page Author: NWS Internet Services Team
Disclaimer
Feedback
Privacy Notice
Credits